Shinano Maru — JD2842 — position and weather

sailwx.info

Track history (hours):
 
Tides and Currents Weather Stations Pressure Air Temp Water Temp Dewpoint Dewpoint Depression Visibility Wind Speed Wind Dir Waves Ship Positions

Shinano Maru

Last reported at 2018-Jun-24 18:28 UTC. Time now 2018-Jun-24 18:53 UTC.
Position N 35°13' E 139°43'.

Length 38 m; draft 3 m.

Type: Tug. MMSI: 431000795.

Date/timePositionNaut miles runAvg speedWind from/ knotsBaromVisibWave heightAir tempDewpointWater temp
2018-Jun-24 18:28N 35°13' E 139°43'0 0.0
2018-Jun-24 17:59N 35°13' E 139°43'0 0.0
2018-Jun-24 17:27N 35°13' E 139°43'0 0.0
2018-Jun-24 16:59N 35°13' E 139°43'0 0.0
2018-Jun-24 16:29N 35°13' E 139°43'0 0.0
2018-Jun-24 15:58N 35°13' E 139°43'0 0.0
2018-Jun-24 15:27N 35°13' E 139°43'0 0.0
2018-Jun-24 14:57N 35°13' E 139°43'0 0.0
2018-Jun-24 14:26N 35°13' E 139°43'0 0.0
2018-Jun-24 14:00N 35°13' E 139°43'0 0.0
2018-Jun-24 13:26N 35°13' E 139°43'0 0.0
2018-Jun-24 12:52N 35°13' E 139°43'0 0.0
2018-Jun-24 12:25N 35°13' E 139°43'0 0.0
2018-Jun-24 11:50N 35°13' E 139°43'0 0.0
2018-Jun-24 11:30N 35°13' E 139°43'0 0.0
2018-Jun-24 10:06N 35°13' E 139°43'0 0.0
2018-Jun-24 09:36N 35°13' E 139°43'0 0.0
2018-Jun-24 09:25N 35°13' E 139°43'0 0.0
2018-Jun-24 08:44N 35°13' E 139°43'0 0.0
2018-Jun-24 08:27N 35°13' E 139°43'0 0.0
2018-Jun-24 07:59N 35°13' E 139°43'0 0.0
2018-Jun-24 07:19N 35°13' E 139°43'0 0.0
2018-Jun-24 06:59N 35°13' E 139°43'0 0.0
2018-Jun-24 06:29N 35°13' E 139°43'0 0.0
2018-Jun-24 05:56N 35°13' E 139°43'0 0.0
2018-Jun-24 05:30N 35°13' E 139°43'0 0.0
2018-Jun-24 04:59N 35°13' E 139°43'0 0.0
2018-Jun-24 04:26N 35°13' E 139°43'0 0.0
2018-Jun-24 03:58N 35°13' E 139°43'0 0.0
2018-Jun-24 03:29N 35°13' E 139°43'0 0.0
2018-Jun-24 03:00N 35°13' E 139°43'0 1.0
2018-Jun-24 02:30N 35°13' E 139°43'3 4.8
2018-Jun-24 01:52N 35°16' E 139°46'512.7
2018-Jun-24 01:30N 35°19' E 139°43'611.6
2018-Jun-24 01:00N 35°25' E 139°44'4 7.8
2018-Jun-24 00:30N 35°23' E 139°48'2 3.9
2018-Jun-24 00:00N 35°21' E 139°49'0 0.0
2018-Jun-23 23:30N 35°21' E 139°49'0 0.7
2018-Jun-23 23:00N 35°21' E 139°49'0 0.0
2018-Jun-23 22:30N 35°21' E 139°49'0 0.8
2018-Jun-23 22:00N 35°21' E 139°49'5 9.5
2018-Jun-23 21:30N 35°22' E 139°43'610.7
2018-Jun-23 20:59N 35°17' E 139°45'610.6
2018-Jun-23 20:28N 35°12' E 139°47'1 1.3
2018-Jun-23 19:59N 35°11' E 139°46'3 6.3
2018-Jun-23 19:26N 35°13' E 139°43'0 0.0
2018-Jun-23 18:53N 35°13' E 139°43'0 0.0
2018-Jun-23 14:08N 35°13' E 139°43'0 0.0
2018-Jun-23 13:55N 35°13' E 139°43'0 0.0
2018-Jun-23 13:30N 35°13' E 139°43'0 0.0
2018-Jun-23 09:10N 35°13' E 139°43'2 6.0
2018-Jun-23 08:52N 35°13' E 139°45'4 6.7
2018-Jun-23 08:19N 35°16' E 139°46'413.3
2018-Jun-23 08:00N 35°20' E 139°43'612.2
2018-Jun-23 07:30N 35°25' E 139°44'712.6
2018-Jun-23 06:58N 35°29' E 139°51'5 3.4
2018-Jun-23 05:27N 35°29' E 139°58'1 0.3
2018-Jun-23 03:14N 35°28' E 139°57'3 1.3
2018-Jun-23 00:57N 35°29' E 139°53'2 3.6
2018-Jun-23 00:28N 35°28' E 139°51'511.0
2018-Jun-23 00:00N 35°25' E 139°47'611.2
2018-Jun-22 23:30N 35°19' E 139°44'510.4
2018-Jun-22 23:00N 35°15' E 139°47'4 4.9
2018-Jun-22 22:11N 35°11' E 139°46'3 9.6
2018-Jun-22 21:55N 35°13' E 139°45'2 2.0
2018-Jun-22 21:07N 35°13' E 139°43'0 0.0
2018-Jun-22 20:54N 35°13' E 139°43'0 0.0
2018-Jun-22 20:30N 35°13' E 139°43'0 0.0
2018-Jun-22 19:56N 35°13' E 139°43'0 0.0
2018-Jun-22 19:29N 35°13' E 139°43'0 0.0
2018-Jun-22 18:59N 35°13' E 139°43'0 0.0
2018-Jun-22 18:26N 35°13' E 139°43'0 0.0
2018-Jun-22 18:00N 35°13' E 139°43'0 0.0
2018-Jun-22 17:29N 35°13' E 139°43'0 0.0
2018-Jun-22 17:00N 35°13' E 139°43'0 0.0
2018-Jun-22 16:30N 35°13' E 139°43'0 0.0
2018-Jun-22 15:58N 35°13' E 139°43'0 0.0
2018-Jun-22 15:30N 35°13' E 139°43'0 0.0
2018-Jun-22 14:58N 35°13' E 139°43'0 0.0
2018-Jun-22 14:30N 35°13' E 139°43'0 0.0
2018-Jun-22 14:00N 35°13' E 139°43'0 0.0
2018-Jun-22 13:30N 35°13' E 139°43'0 0.0
2018-Jun-22 12:55N 35°13' E 139°43'0 0.0
2018-Jun-22 12:19N 35°13' E 139°43'0 0.0
2018-Jun-22 11:57N 35°13' E 139°43'0 0.0
2018-Jun-22 05:36N 35°13' E 139°43'0 1.9
2018-Jun-22 05:30N 35°13' E 139°43'4 4.9
2018-Jun-22 04:45N 35°16' E 139°45'312.3
2018-Jun-22 04:30N 35°19' E 139°43'612.1
2018-Jun-22 04:00N 35°25' E 139°44'5 9.2
2018-Jun-22 03:30N 35°22' E 139°48'1 2.3
2018-Jun-22 03:00N 35°21' E 139°49'0 0.2
2018-Jun-22 02:30N 35°21' E 139°49'3 5.2
2018-Jun-22 02:00N 35°21' E 139°46'4 7.8
2018-Jun-22 01:30N 35°17' E 139°44'4 7.0
2018-Jun-22 00:59N 35°13' E 139°43'0 0.7
2018-Jun-22 00:30N 35°13' E 139°43'0 0.0
2018-Jun-21 23:36N 35°13' E 139°43'0 0.0
2018-Jun-21 23:28N 35°13' E 139°43'0 0.0
2018-Jun-21 22:58N 35°13' E 139°43'0 0.0
2018-Jun-21 22:26N 35°13' E 139°43'0 0.0
2018-Jun-21 22:00N 35°13' E 139°43'0 0.0
2018-Jun-21 21:29N 35°13' E 139°43'0 0.0
2018-Jun-21 21:00N 35°13' E 139°43'0 0.0
2018-Jun-21 20:29N 35°13' E 139°43'0 0.0
2018-Jun-21 20:00N 35°13' E 139°43'0 0.0
2018-Jun-21 19:27N 35°13' E 139°43'0 0.0
2018-Jun-21 18:59N 35°13' E 139°43'0 0.0
2018-Jun-21 18:24N 35°13' E 139°43'0 0.0
2018-Jun-21 17:59N 35°13' E 139°43'0 0.0
2018-Jun-21 17:20N 35°13' E 139°43'0 0.0
2018-Jun-21 16:56N 35°13' E 139°43'0 0.0
2018-Jun-21 16:30N 35°13' E 139°43'0 0.0
2018-Jun-21 15:50N 35°13' E 139°43'0 0.0
2018-Jun-21 15:28N 35°13' E 139°43'0 0.0
2018-Jun-21 14:55N 35°13' E 139°43'0 0.0
2018-Jun-21 14:05N 35°13' E 139°43'0 0.0
2018-Jun-21 13:56N 35°13' E 139°43'0 0.0
2018-Jun-21 13:20N 35°13' E 139°43'0 0.0
2018-Jun-21 12:57N 35°13' E 139°43'0 0.0
2018-Jun-21 12:16N 35°13' E 139°43'0 0.0
2018-Jun-21 11:57N 35°13' E 139°43'0 0.0
2018-Jun-21 10:42N 35°13' E 139°43'0 0.0
2018-Jun-21 10:23N 35°13' E 139°43'0 0.0
2018-Jun-21 09:25N 35°13' E 139°43'0 0.0
2018-Jun-21 08:49N 35°13' E 139°43'3 7.1
2018-Jun-21 08:25N 35°13' E 139°46'510.1
2018-Jun-21 07:55N 35°17' E 139°45'511.9
2018-Jun-21 07:30N 35°22' E 139°42'2 3.5
2018-Jun-21 07:00N 35°23' E 139°41'1 1.3
2018-Jun-21 06:31N 35°23' E 139°40'0 0.0
2018-Jun-21 06:00N 35°23' E 139°40'0 0.0
2018-Jun-21 05:30N 35°23' E 139°40'0 0.0
2018-Jun-21 05:00N 35°23' E 139°40'2 3.4
2018-Jun-21 04:30N 35°25' E 139°39'1 1.4
2018-Jun-21 04:00N 35°24' E 139°40'2 3.1
2018-Jun-21 03:30N 35°23' E 139°41'5 9.3
2018-Jun-21 03:00N 35°27' E 139°45'510.1
2018-Jun-21 02:30N 35°30' E 139°50'4 3.2
2018-Jun-21 01:17N 35°31' E 139°54'310.5
2018-Jun-21 00:59N 35°29' E 139°52'613.3
2018-Jun-21 00:30N 35°24' E 139°46'612.6
2018-Jun-21 00:00N 35°18' E 139°44'611.0
2018-Jun-20 23:29N 35°13' E 139°47'2 2.3
2018-Jun-20 22:44N 35°13' E 139°45'2 6.5
2018-Jun-20 22:30N 35°13' E 139°43'0 0.0
2018-Jun-20 08:00N 35°13' E 139°43'4 4.9
2018-Jun-20 07:11N 35°17' E 139°45'212.6
2018-Jun-20 07:00N 35°19' E 139°43'5 9.8
2018-Jun-20 06:30N 35°23' E 139°41'1 2.3
2018-Jun-20 06:00N 35°24' E 139°39'0 0.3
2018-Jun-20 05:30N 35°24' E 139°39'0 0.6
2018-Jun-20 05:00N 35°24' E 139°39'4 8.1
2018-Jun-20 04:30N 35°20' E 139°42'5 9.2
2018-Jun-20 04:00N 35°16' E 139°45'3 0.6
2018-Jun-19 22:17N 35°13' E 139°43'0 0.0
2018-Jun-19 20:54N 35°13' E 139°43'0 0.0
2018-Jun-19 20:27N 35°13' E 139°43'0 0.0
2018-Jun-19 19:53N 35°13' E 139°43'0 0.0
2018-Jun-19 19:11N 35°13' E 139°43'0 0.0
2018-Jun-19 18:45N 35°13' E 139°43'0 0.0
2018-Jun-19 16:13N 35°13' E 139°43'0 0.0
2018-Jun-19 15:48N 35°13' E 139°43'0 0.0
2018-Jun-19 15:24N 35°13' E 139°43'0 0.0
2018-Jun-19 14:12N 35°13' E 139°43'0 0.0
2018-Jun-19 13:59N 35°13' E 139°43'0 0.0
2018-Jun-19 13:11N 35°13' E 139°43'0 0.0
2018-Jun-19 12:48N 35°13' E 139°43'0 0.0
2018-Jun-19 11:51N 35°13' E 139°43'0 0.0
2018-Jun-19 06:07N 35°13' E 139°43'0 0.0
2018-Jun-19 03:48N 35°13' E 139°43'0 0.0
2018-Jun-19 03:27N 35°13' E 139°43'0 0.0
2018-Jun-19 02:46N 35°13' E 139°43'0 0.0
2018-Jun-19 02:20N 35°13' E 139°43'0 0.0
2018-Jun-19 00:56N 35°13' E 139°43'0 0.0
2018-Jun-18 23:18N 35°13' E 139°43'0 0.0
2018-Jun-18 22:55N 35°13' E 139°43'0 0.0
2018-Jun-18 22:27N 35°13' E 139°43'0 0.0
2018-Jun-18 22:00N 35°13' E 139°43'1 1.1
2018-Jun-18 21:30N 35°13' E 139°43'4 8.0
2018-Jun-18 20:58N 35°18' E 139°44'2 4.6
2018-Jun-18 20:30N 35°20' E 139°43'611.7
2018-Jun-18 20:00N 35°14' E 139°47'3 3.7
2018-Jun-18 19:11N 35°11' E 139°46'210.2
2018-Jun-18 19:00N 35°13' E 139°44'1 0.2
2018-Jun-18 13:31N 35°13' E 139°43'0 3.9
2018-Jun-18 13:30N 35°13' E 139°43'4 4.6
2018-Jun-18 12:41N 35°16' E 139°45'212.2
2018-Jun-18 12:30N 35°18' E 139°44'510.3
2018-Jun-18 12:00N 35°23' E 139°42'2 3.9
2018-Jun-18 11:30N 35°24' E 139°45'0 0.0
2018-Jun-18 11:00N 35°24' E 139°45'0 0.0
2018-Jun-18 10:29N 35°24' E 139°45'0 0.0
2018-Jun-18 10:00N 35°24' E 139°45'0 0.0
2018-Jun-18 09:30N 35°24' E 139°45'0 0.0
2018-Jun-18 09:00N 35°24' E 139°45'0 0.0
2018-Jun-18 08:30N 35°24' E 139°45'2 3.1
2018-Jun-18 08:00N 35°25' E 139°46'5 9.3
2018-Jun-18 07:30N 35°21' E 139°45'611.3
2018-Jun-18 06:58N 35°15' E 139°47'3 3.2
2018-Jun-18 06:10N 35°12' E 139°46'3 9.8
2018-Jun-18 05:54N 35°13' E 139°43'0 0.1
2018-Jun-18 02:56N 35°13' E 139°43'0 0.0
2018-Jun-18 02:21N 35°13' E 139°43'0 0.0
2018-Jun-18 01:55N 35°13' E 139°43'0 0.0
2018-Jun-18 01:28N 35°13' E 139°43'0 0.0
2018-Jun-18 00:57N 35°13' E 139°43'0 0.0
2018-Jun-18 00:27N 35°13' E 139°43'0 0.0
2018-Jun-17 23:58N 35°13' E 139°43'0 0.0
2018-Jun-17 23:29N 35°13' E 139°43'0 0.0
2018-Jun-17 23:00N 35°13' E 139°43'0 0.0
2018-Jun-17 22:28N 35°13' E 139°43'0 0.0
2018-Jun-17 21:50N 35°13' E 139°43'0 0.0
2018-Jun-17 21:27N 35°13' E 139°43'0 0.0
2018-Jun-17 20:59N 35°13' E 139°43'0 0.0
2018-Jun-17 20:28N 35°13' E 139°43'0 0.0
2018-Jun-17 20:00N 35°13' E 139°43'0 0.0
2018-Jun-17 19:22N 35°13' E 139°43'0 0.0
2018-Jun-17 19:00N 35°13' E 139°43'0 0.0
2018-Jun-17 18:28N 35°13' E 139°43'0 0.0
2018-Jun-17 17:52N 35°13' E 139°43'0 0.0
2018-Jun-17 17:27N 35°13' E 139°43'0 0.0
2018-Jun-17 16:50N 35°13' E 139°43'0 0.0
2018-Jun-17 16:28N 35°13' E 139°43'0 0.0
2018-Jun-17 16:00N 35°13' E 139°43'0 0.0
2018-Jun-17 15:28N 35°13' E 139°43'0 0.0
2018-Jun-17 15:00N 35°13' E 139°43'0 0.0
2018-Jun-17 14:30N 35°13' E 139°43'0 0.0
2018-Jun-17 14:00N 35°13' E 139°43'0 0.0
2018-Jun-17 13:29N 35°13' E 139°43'0 0.0
2018-Jun-17 12:54N 35°13' E 139°43'0 0.0
2018-Jun-17 12:30N 35°13' E 139°43'0 0.0
2018-Jun-17 11:58N 35°13' E 139°43'0 0.0
2018-Jun-17 11:29N 35°13' E 139°43'0 0.0
2018-Jun-17 11:00N 35°13' E 139°43'0 0.0
2018-Jun-17 10:28N 35°13' E 139°43'0 0.0
2018-Jun-17 09:58N 35°13' E 139°43'0 0.0
2018-Jun-17 09:27N 35°13' E 139°43'0 0.0
2018-Jun-17 08:59N 35°13' E 139°43'0 0.0
2018-Jun-17 08:29N 35°13' E 139°43'0 0.0
2018-Jun-17 08:00N 35°13' E 139°43'0 0.0
2018-Jun-17 07:28N 35°13' E 139°43'0 0.0
2018-Jun-17 06:46N 35°13' E 139°43'0 0.0
2018-Jun-17 06:20N 35°13' E 139°43'0 0.0
2018-Jun-17 05:13N 35°13' E 139°43'0 0.0
2018-Jun-17 04:56N 35°13' E 139°43'0 0.0
2018-Jun-17 03:11N 35°13' E 139°43'0 0.0
2018-Jun-17 01:20N 35°13' E 139°43'0 0.0
2018-Jun-17 00:56N 35°13' E 139°43'0 0.0
2018-Jun-16 23:21N 35°13' E 139°43'2 3.9
2018-Jun-16 22:56N 35°14' E 139°45'510.5
2018-Jun-16 22:28N 35°18' E 139°43'4 9.6
2018-Jun-16 22:01N 35°23' E 139°44'1 2.5
2018-Jun-16 21:30N 35°22' E 139°45'611.6
2018-Jun-16 21:00N 35°17' E 139°46'612.2
2018-Jun-16 20:30N 35°11' E 139°47'2 0.3
2018-Jun-16 11:57N 35°13' E 139°45'4 8.7
2018-Jun-16 11:29N 35°17' E 139°45'611.8
2018-Jun-16 11:00N 35°22' E 139°42'611.3
2018-Jun-16 10:29N 35°26' E 139°46'9 4.5
2018-Jun-16 08:35N 35°31' E 139°55'4 2.2
2018-Jun-16 06:43N 35°28' E 139°52'210.5
2018-Jun-16 06:30N 35°27' E 139°50'510.4
2018-Jun-16 06:00N 35°23' E 139°46'611.7
2018-Jun-16 05:31N 35°17' E 139°46'612.3
2018-Jun-16 05:00N 35°11' E 139°47'2 3.5
2018-Jun-16 04:22N 35°13' E 139°46'2 5.4
2018-Jun-16 03:58N 35°13' E 139°43'0 0.2
2018-Jun-16 03:11N 35°13' E 139°43'0 0.0
2018-Jun-16 01:55N 35°13' E 139°43'0 0.0
2018-Jun-16 01:23N 35°13' E 139°43'0 0.0
2018-Jun-16 00:57N 35°13' E 139°43'0 0.0
2018-Jun-16 00:28N 35°13' E 139°43'0 0.0
2018-Jun-15 23:58N 35°13' E 139°43'0 0.0
2018-Jun-15 23:27N 35°13' E 139°43'0 0.0
2018-Jun-15 22:56N 35°13' E 139°43'0 0.0
2018-Jun-15 22:21N 35°13' E 139°43'0 0.0
2018-Jun-15 21:49N 35°13' E 139°43'0 0.0
2018-Jun-15 21:30N 35°13' E 139°43'0 0.0
2018-Jun-15 20:57N 35°13' E 139°43'0 0.0
2018-Jun-15 20:28N 35°13' E 139°43'0 0.0
2018-Jun-15 20:00N 35°13' E 139°43'0 0.0
2018-Jun-15 19:29N 35°13' E 139°43'0 0.0
2018-Jun-15 18:46N 35°13' E 139°43'0 0.0
2018-Jun-15 18:23N 35°13' E 139°43'0 0.0
2018-Jun-15 18:00N 35°13' E 139°43'0 0.0
2018-Jun-15 17:30N 35°13' E 139°43'0 0.0
2018-Jun-15 16:59N 35°13' E 139°43'0 0.0
2018-Jun-15 15:58N 35°13' E 139°43'0 0.0
2018-Jun-15 15:22N 35°13' E 139°43'0 0.0
2018-Jun-15 14:58N 35°13' E 139°43'0 0.0
2018-Jun-15 14:26N 35°13' E 139°43'0 0.0
2018-Jun-15 11:29N 35°13' E 139°43'0 0.0
2018-Jun-15 10:27N 35°13' E 139°43'0 0.0
2018-Jun-15 09:10N 35°13' E 139°43'0 0.0
2018-Jun-15 04:11N 35°13' E 139°43'1 3.0
2018-Jun-15 03:59N 35°13' E 139°44'4 5.4
2018-Jun-15 03:14N 35°17' E 139°45'312.3
2018-Jun-15 03:01N 35°19' E 139°43'5 9.5
2018-Jun-15 02:31N 35°24' E 139°40'0 0.8
2018-Jun-15 02:01N 35°24' E 139°40'0 0.3
2018-Jun-15 01:30N 35°24' E 139°40'3 5.4
2018-Jun-15 01:01N 35°24' E 139°43'611.7
2018-Jun-15 00:30N 35°28' E 139°49'6 7.3
2018-Jun-14 23:44N 35°31' E 139°55'2 8.9
2018-Jun-14 23:28N 35°29' E 139°53'611.8
2018-Jun-14 22:56N 35°25' E 139°47'512.0
2018-Jun-14 22:30N 35°20' E 139°44'5 9.8
2018-Jun-14 22:00N 35°16' E 139°47'5 5.8
2018-Jun-14 21:12N 35°11' E 139°46'2 9.6
2018-Jun-14 21:00N 35°13' E 139°45'  
Track history (hours):
 
Tides and Currents Weather Stations Pressure Air Temp Water Temp Dewpoint Dewpoint Depression Visibility Wind Speed Wind Dir Waves Ship Positions

Shinano Maru

Last reported at 2018-Jun-24 18:28 UTC. Time now 2018-Jun-24 18:53 UTC.
Position N 35°13' E 139°43'.

Length 38 m; draft 3 m.

Type: Tug. MMSI: 431000795.

Date/timePositionNaut miles runAvg speedWind from/ knotsBaromVisibWave heightAir tempDewpointWater temp
2018-Jun-24 18:28N 35°13' E 139°43'0 0.0
2018-Jun-24 17:59N 35°13' E 139°43'0 0.0
2018-Jun-24 17:27N 35°13' E 139°43'0 0.0
2018-Jun-24 16:59N 35°13' E 139°43'0 0.0
2018-Jun-24 16:29N 35°13' E 139°43'0 0.0
2018-Jun-24 15:58N 35°13' E 139°43'0 0.0
2018-Jun-24 15:27N 35°13' E 139°43'0 0.0
2018-Jun-24 14:57N 35°13' E 139°43'0 0.0
2018-Jun-24 14:26N 35°13' E 139°43'0 0.0
2018-Jun-24 14:00N 35°13' E 139°43'0 0.0
2018-Jun-24 13:26N 35°13' E 139°43'0 0.0
2018-Jun-24 12:52N 35°13' E 139°43'0 0.0
2018-Jun-24 12:25N 35°13' E 139°43'0 0.0
2018-Jun-24 11:50N 35°13' E 139°43'0 0.0
2018-Jun-24 11:30N 35°13' E 139°43'0 0.0
2018-Jun-24 10:06N 35°13' E 139°43'0 0.0
2018-Jun-24 09:36N 35°13' E 139°43'0 0.0
2018-Jun-24 09:25N 35°13' E 139°43'0 0.0
2018-Jun-24 08:44N 35°13' E 139°43'0 0.0
2018-Jun-24 08:27N 35°13' E 139°43'0 0.0
2018-Jun-24 07:59N 35°13' E 139°43'0 0.0
2018-Jun-24 07:19N 35°13' E 139°43'0 0.0
2018-Jun-24 06:59N 35°13' E 139°43'0 0.0
2018-Jun-24 06:29N 35°13' E 139°43'0 0.0
2018-Jun-24 05:56N 35°13' E 139°43'0 0.0
2018-Jun-24 05:30N 35°13' E 139°43'0 0.0
2018-Jun-24 04:59N 35°13' E 139°43'0 0.0
2018-Jun-24 04:26N 35°13' E 139°43'0 0.0
2018-Jun-24 03:58N 35°13' E 139°43'0 0.0
2018-Jun-24 03:29N 35°13' E 139°43'0 0.0
2018-Jun-24 03:00N 35°13' E 139°43'0 1.0
2018-Jun-24 02:30N 35°13' E 139°43'3 4.8
2018-Jun-24 01:52N 35°16' E 139°46'512.7
2018-Jun-24 01:30N 35°19' E 139°43'611.6
2018-Jun-24 01:00N 35°25' E 139°44'4 7.8
2018-Jun-24 00:30N 35°23' E 139°48'2 3.9
2018-Jun-24 00:00N 35°21' E 139°49'0 0.0
2018-Jun-23 23:30N 35°21' E 139°49'0 0.7
2018-Jun-23 23:00N 35°21' E 139°49'0 0.0
2018-Jun-23 22:30N 35°21' E 139°49'0 0.8
2018-Jun-23 22:00N 35°21' E 139°49'5 9.5
2018-Jun-23 21:30N 35°22' E 139°43'610.7
2018-Jun-23 20:59N 35°17' E 139°45'610.6
2018-Jun-23 20:28N 35°12' E 139°47'1 1.3
2018-Jun-23 19:59N 35°11' E 139°46'3 6.3
2018-Jun-23 19:26N 35°13' E 139°43'0 0.0
2018-Jun-23 18:53N 35°13' E 139°43'0 0.0
2018-Jun-23 14:08N 35°13' E 139°43'0 0.0
2018-Jun-23 13:55N 35°13' E 139°43'0 0.0
2018-Jun-23 13:30N 35°13' E 139°43'0 0.0
2018-Jun-23 09:10N 35°13' E 139°43'2 6.0
2018-Jun-23 08:52N 35°13' E 139°45'4 6.7
2018-Jun-23 08:19N 35°16' E 139°46'413.3
2018-Jun-23 08:00N 35°20' E 139°43'612.2
2018-Jun-23 07:30N 35°25' E 139°44'712.6
2018-Jun-23 06:58N 35°29' E 139°51'5 3.4
2018-Jun-23 05:27N 35°29' E 139°58'1 0.3
2018-Jun-23 03:14N 35°28' E 139°57'3 1.3
2018-Jun-23 00:57N 35°29' E 139°53'2 3.6
2018-Jun-23 00:28N 35°28' E 139°51'511.0
2018-Jun-23 00:00N 35°25' E 139°47'611.2
2018-Jun-22 23:30N 35°19' E 139°44'510.4
2018-Jun-22 23:00N 35°15' E 139°47'4 4.9
2018-Jun-22 22:11N 35°11' E 139°46'3 9.6
2018-Jun-22 21:55N 35°13' E 139°45'2 2.0
2018-Jun-22 21:07N 35°13' E 139°43'0 0.0
2018-Jun-22 20:54N 35°13' E 139°43'0 0.0
2018-Jun-22 20:30N 35°13' E 139°43'0 0.0
2018-Jun-22 19:56N 35°13' E 139°43'0 0.0
2018-Jun-22 19:29N 35°13' E 139°43'0 0.0
2018-Jun-22 18:59N 35°13' E 139°43'0 0.0
2018-Jun-22 18:26N 35°13' E 139°43'0 0.0
2018-Jun-22 18:00N 35°13' E 139°43'0 0.0
2018-Jun-22 17:29N 35°13' E 139°43'0 0.0
2018-Jun-22 17:00N 35°13' E 139°43'0 0.0
2018-Jun-22 16:30N 35°13' E 139°43'0 0.0
2018-Jun-22 15:58N 35°13' E 139°43'0 0.0
2018-Jun-22 15:30N 35°13' E 139°43'0 0.0
2018-Jun-22 14:58N 35°13' E 139°43'0 0.0
2018-Jun-22 14:30N 35°13' E 139°43'0 0.0
2018-Jun-22 14:00N 35°13' E 139°43'0 0.0
2018-Jun-22 13:30N 35°13' E 139°43'0 0.0
2018-Jun-22 12:55N 35°13' E 139°43'0 0.0
2018-Jun-22 12:19N 35°13' E 139°43'0 0.0
2018-Jun-22 11:57N 35°13' E 139°43'0 0.0
2018-Jun-22 05:36N 35°13' E 139°43'0 1.9
2018-Jun-22 05:30N 35°13' E 139°43'4 4.9
2018-Jun-22 04:45N 35°16' E 139°45'312.3
2018-Jun-22 04:30N 35°19' E 139°43'612.1
2018-Jun-22 04:00N 35°25' E 139°44'5 9.2
2018-Jun-22 03:30N 35°22' E 139°48'1 2.3
2018-Jun-22 03:00N 35°21' E 139°49'0 0.2
2018-Jun-22 02:30N 35°21' E 139°49'3 5.2
2018-Jun-22 02:00N 35°21' E 139°46'4 7.8
2018-Jun-22 01:30N 35°17' E 139°44'4 7.0
2018-Jun-22 00:59N 35°13' E 139°43'0 0.7
2018-Jun-22 00:30N 35°13' E 139°43'0 0.0
2018-Jun-21 23:36N 35°13' E 139°43'0 0.0
2018-Jun-21 23:28N 35°13' E 139°43'0 0.0
2018-Jun-21 22:58N 35°13' E 139°43'0 0.0
2018-Jun-21 22:26N 35°13' E 139°43'0 0.0
2018-Jun-21 22:00N 35°13' E 139°43'0 0.0
2018-Jun-21 21:29N 35°13' E 139°43'0 0.0
2018-Jun-21 21:00N 35°13' E 139°43'0 0.0
2018-Jun-21 20:29N 35°13' E 139°43'0 0.0
2018-Jun-21 20:00N 35°13' E 139°43'0 0.0
2018-Jun-21 19:27N 35°13' E 139°43'0 0.0
2018-Jun-21 18:59N 35°13' E 139°43'0 0.0
2018-Jun-21 18:24N 35°13' E 139°43'0 0.0
2018-Jun-21 17:59N 35°13' E 139°43'0 0.0
2018-Jun-21 17:20N 35°13' E 139°43'0 0.0
2018-Jun-21 16:56N 35°13' E 139°43'0 0.0
2018-Jun-21 16:30N 35°13' E 139°43'0 0.0
2018-Jun-21 15:50N 35°13' E 139°43'0 0.0
2018-Jun-21 15:28N 35°13' E 139°43'0 0.0
2018-Jun-21 14:55N 35°13' E 139°43'0 0.0
2018-Jun-21 14:05N 35°13' E 139°43'0 0.0
2018-Jun-21 13:56N 35°13' E 139°43'0 0.0
2018-Jun-21 13:20N 35°13' E 139°43'0 0.0
2018-Jun-21 12:57N 35°13' E 139°43'0 0.0
2018-Jun-21 12:16N 35°13' E 139°43'0 0.0
2018-Jun-21 11:57N 35°13' E 139°43'0 0.0
2018-Jun-21 10:42N 35°13' E 139°43'0 0.0
2018-Jun-21 10:23N 35°13' E 139°43'0 0.0
2018-Jun-21 09:25N 35°13' E 139°43'0 0.0
2018-Jun-21 08:49N 35°13' E 139°43'3 7.1
2018-Jun-21 08:25N 35°13' E 139°46'510.1
2018-Jun-21 07:55N 35°17' E 139°45'511.9
2018-Jun-21 07:30N 35°22' E 139°42'2 3.5
2018-Jun-21 07:00N 35°23' E 139°41'1 1.3
2018-Jun-21 06:31N 35°23' E 139°40'0 0.0
2018-Jun-21 06:00N 35°23' E 139°40'0 0.0
2018-Jun-21 05:30N 35°23' E 139°40'0 0.0
2018-Jun-21 05:00N 35°23' E 139°40'2 3.4
2018-Jun-21 04:30N 35°25' E 139°39'1 1.4
2018-Jun-21 04:00N 35°24' E 139°40'2 3.1
2018-Jun-21 03:30N 35°23' E 139°41'5 9.3
2018-Jun-21 03:00N 35°27' E 139°45'510.1
2018-Jun-21 02:30N 35°30' E 139°50'4 3.2
2018-Jun-21 01:17N 35°31' E 139°54'310.5
2018-Jun-21 00:59N 35°29' E 139°52'613.3
2018-Jun-21 00:30N 35°24' E 139°46'612.6
2018-Jun-21 00:00N 35°18' E 139°44'611.0
2018-Jun-20 23:29N 35°13' E 139°47'2 2.3
2018-Jun-20 22:44N 35°13' E 139°45'2 6.5
2018-Jun-20 22:30N 35°13' E 139°43'0 0.0
2018-Jun-20 08:00N 35°13' E 139°43'4 4.9
2018-Jun-20 07:11N 35°17' E 139°45'212.6
2018-Jun-20 07:00N 35°19' E 139°43'5 9.8
2018-Jun-20 06:30N 35°23' E 139°41'1 2.3
2018-Jun-20 06:00N 35°24' E 139°39'0 0.3
2018-Jun-20 05:30N 35°24' E 139°39'0 0.6
2018-Jun-20 05:00N 35°24' E 139°39'4 8.1
2018-Jun-20 04:30N 35°20' E 139°42'5 9.2
2018-Jun-20 04:00N 35°16' E 139°45'3 0.6
2018-Jun-19 22:17N 35°13' E 139°43'0 0.0
2018-Jun-19 20:54N 35°13' E 139°43'0 0.0
2018-Jun-19 20:27N 35°13' E 139°43'0 0.0
2018-Jun-19 19:53N 35°13' E 139°43'0 0.0
2018-Jun-19 19:11N 35°13' E 139°43'0 0.0
2018-Jun-19 18:45N 35°13' E 139°43'0 0.0
2018-Jun-19 16:13N 35°13' E 139°43'0 0.0
2018-Jun-19 15:48N 35°13' E 139°43'0 0.0
2018-Jun-19 15:24N 35°13' E 139°43'0 0.0
2018-Jun-19 14:12N 35°13' E 139°43'0 0.0
2018-Jun-19 13:59N 35°13' E 139°43'0 0.0
2018-Jun-19 13:11N 35°13' E 139°43'0 0.0
2018-Jun-19 12:48N 35°13' E 139°43'0 0.0
2018-Jun-19 11:51N 35°13' E 139°43'0 0.0
2018-Jun-19 06:07N 35°13' E 139°43'0 0.0
2018-Jun-19 03:48N 35°13' E 139°43'0 0.0
2018-Jun-19 03:27N 35°13' E 139°43'0 0.0
2018-Jun-19 02:46N 35°13' E 139°43'0 0.0
2018-Jun-19 02:20N 35°13' E 139°43'0 0.0
2018-Jun-19 00:56N 35°13' E 139°43'0 0.0
2018-Jun-18 23:18N 35°13' E 139°43'0 0.0
2018-Jun-18 22:55N 35°13' E 139°43'0 0.0
2018-Jun-18 22:27N 35°13' E 139°43'0 0.0
2018-Jun-18 22:00N 35°13' E 139°43'1 1.1
2018-Jun-18 21:30N 35°13' E 139°43'4 8.0
2018-Jun-18 20:58N 35°18' E 139°44'2 4.6
2018-Jun-18 20:30N 35°20' E 139°43'611.7
2018-Jun-18 20:00N 35°14' E 139°47'3 3.7
2018-Jun-18 19:11N 35°11' E 139°46'210.2
2018-Jun-18 19:00N 35°13' E 139°44'1 0.2
2018-Jun-18 13:31N 35°13' E 139°43'0 3.9
2018-Jun-18 13:30N 35°13' E 139°43'4 4.6
2018-Jun-18 12:41N 35°16' E 139°45'212.2
2018-Jun-18 12:30N 35°18' E 139°44'510.3
2018-Jun-18 12:00N 35°23' E 139°42'2 3.9
2018-Jun-18 11:30N 35°24' E 139°45'0 0.0
2018-Jun-18 11:00N 35°24' E 139°45'0 0.0
2018-Jun-18 10:29N 35°24' E 139°45'0 0.0
2018-Jun-18 10:00N 35°24' E 139°45'0 0.0
2018-Jun-18 09:30N 35°24' E 139°45'0 0.0
2018-Jun-18 09:00N 35°24' E 139°45'0 0.0
2018-Jun-18 08:30N 35°24' E 139°45'2 3.1
2018-Jun-18 08:00N 35°25' E 139°46'5 9.3
2018-Jun-18 07:30N 35°21' E 139°45'611.3
2018-Jun-18 06:58N 35°15' E 139°47'3 3.2
2018-Jun-18 06:10N 35°12' E 139°46'3 9.8
2018-Jun-18 05:54N 35°13' E 139°43'0 0.1
2018-Jun-18 02:56N 35°13' E 139°43'0 0.0
2018-Jun-18 02:21N 35°13' E 139°43'0 0.0
2018-Jun-18 01:55N 35°13' E 139°43'0 0.0
2018-Jun-18 01:28N 35°13' E 139°43'0 0.0
2018-Jun-18 00:57N 35°13' E 139°43'0 0.0
2018-Jun-18 00:27N 35°13' E 139°43'0 0.0
2018-Jun-17 23:58N 35°13' E 139°43'0 0.0
2018-Jun-17 23:29N 35°13' E 139°43'0 0.0
2018-Jun-17 23:00N 35°13' E 139°43'0 0.0
2018-Jun-17 22:28N 35°13' E 139°43'0 0.0
2018-Jun-17 21:50N 35°13' E 139°43'0 0.0
2018-Jun-17 21:27N 35°13' E 139°43'0 0.0
2018-Jun-17 20:59N 35°13' E 139°43'0 0.0
2018-Jun-17 20:28N 35°13' E 139°43'0 0.0
2018-Jun-17 20:00N 35°13' E 139°43'0 0.0
2018-Jun-17 19:22N 35°13' E 139°43'0 0.0
2018-Jun-17 19:00N 35°13' E 139°43'0 0.0
2018-Jun-17 18:28N 35°13' E 139°43'0 0.0
2018-Jun-17 17:52N 35°13' E 139°43'0 0.0
2018-Jun-17 17:27N 35°13' E 139°43'0 0.0
2018-Jun-17 16:50N 35°13' E 139°43'0 0.0
2018-Jun-17 16:28N 35°13' E 139°43'0 0.0
2018-Jun-17 16:00N 35°13' E 139°43'0 0.0
2018-Jun-17 15:28N 35°13' E 139°43'0 0.0
2018-Jun-17 15:00N 35°13' E 139°43'0 0.0
2018-Jun-17 14:30N 35°13' E 139°43'0 0.0
2018-Jun-17 14:00N 35°13' E 139°43'0 0.0
2018-Jun-17 13:29N 35°13' E 139°43'0 0.0
2018-Jun-17 12:54N 35°13' E 139°43'0 0.0
2018-Jun-17 12:30N 35°13' E 139°43'0 0.0
2018-Jun-17 11:58N 35°13' E 139°43'0 0.0
2018-Jun-17 11:29N 35°13' E 139°43'0 0.0
2018-Jun-17 11:00N 35°13' E 139°43'0 0.0
2018-Jun-17 10:28N 35°13' E 139°43'0 0.0
2018-Jun-17 09:58N 35°13' E 139°43'0 0.0
2018-Jun-17 09:27N 35°13' E 139°43'0 0.0
2018-Jun-17 08:59N 35°13' E 139°43'0 0.0
2018-Jun-17 08:29N 35°13' E 139°43'0 0.0
2018-Jun-17 08:00N 35°13' E 139°43'0 0.0
2018-Jun-17 07:28N 35°13' E 139°43'0 0.0
2018-Jun-17 06:46N 35°13' E 139°43'0 0.0
2018-Jun-17 06:20N 35°13' E 139°43'0 0.0
2018-Jun-17 05:13N 35°13' E 139°43'0 0.0
2018-Jun-17 04:56N 35°13' E 139°43'0 0.0
2018-Jun-17 03:11N 35°13' E 139°43'0 0.0
2018-Jun-17 01:20N 35°13' E 139°43'0 0.0
2018-Jun-17 00:56N 35°13' E 139°43'0 0.0
2018-Jun-16 23:21N 35°13' E 139°43'2 3.9
2018-Jun-16 22:56N 35°14' E 139°45'510.5
2018-Jun-16 22:28N 35°18' E 139°43'4 9.6
2018-Jun-16 22:01N 35°23' E 139°44'1 2.5
2018-Jun-16 21:30N 35°22' E 139°45'611.6
2018-Jun-16 21:00N 35°17' E 139°46'612.2
2018-Jun-16 20:30N 35°11' E 139°47'2 0.3
2018-Jun-16 11:57N 35°13' E 139°45'4 8.7
2018-Jun-16 11:29N 35°17' E 139°45'611.8
2018-Jun-16 11:00N 35°22' E 139°42'611.3
2018-Jun-16 10:29N 35°26' E 139°46'9 4.5
2018-Jun-16 08:35N 35°31' E 139°55'4 2.2
2018-Jun-16 06:43N 35°28' E 139°52'210.5
2018-Jun-16 06:30N 35°27' E 139°50'510.4
2018-Jun-16 06:00N 35°23' E 139°46'611.7
2018-Jun-16 05:31N 35°17' E 139°46'612.3
2018-Jun-16 05:00N 35°11' E 139°47'2 3.5
2018-Jun-16 04:22N 35°13' E 139°46'2 5.4
2018-Jun-16 03:58N 35°13' E 139°43'0 0.2
2018-Jun-16 03:11N 35°13' E 139°43'0 0.0
2018-Jun-16 01:55N 35°13' E 139°43'0 0.0
2018-Jun-16 01:23N 35°13' E 139°43'0 0.0
2018-Jun-16 00:57N 35°13' E 139°43'0 0.0
2018-Jun-16 00:28N 35°13' E 139°43'0 0.0
2018-Jun-15 23:58N 35°13' E 139°43'0 0.0
2018-Jun-15 23:27N 35°13' E 139°43'0 0.0
2018-Jun-15 22:56N 35°13' E 139°43'0 0.0
2018-Jun-15 22:21N 35°13' E 139°43'0 0.0
2018-Jun-15 21:49N 35°13' E 139°43'0 0.0
2018-Jun-15 21:30N 35°13' E 139°43'0 0.0
2018-Jun-15 20:57N 35°13' E 139°43'0 0.0
2018-Jun-15 20:28N 35°13' E 139°43'0 0.0
2018-Jun-15 20:00N 35°13' E 139°43'0 0.0
2018-Jun-15 19:29N 35°13' E 139°43'0 0.0
2018-Jun-15 18:46N 35°13' E 139°43'0 0.0
2018-Jun-15 18:23N 35°13' E 139°43'0 0.0
2018-Jun-15 18:00N 35°13' E 139°43'0 0.0
2018-Jun-15 17:30N 35°13' E 139°43'0 0.0
2018-Jun-15 16:59N 35°13' E 139°43'0 0.0
2018-Jun-15 15:58N 35°13' E 139°43'0 0.0
2018-Jun-15 15:22N 35°13' E 139°43'0 0.0
2018-Jun-15 14:58N 35°13' E 139°43'0 0.0
2018-Jun-15 14:26N 35°13' E 139°43'0 0.0
2018-Jun-15 11:29N 35°13' E 139°43'0 0.0
2018-Jun-15 10:27N 35°13' E 139°43'0 0.0
2018-Jun-15 09:10N 35°13' E 139°43'0 0.0
2018-Jun-15 04:11N 35°13' E 139°43'1 3.0
2018-Jun-15 03:59N 35°13' E 139°44'4 5.4
2018-Jun-15 03:14N 35°17' E 139°45'312.3
2018-Jun-15 03:01N 35°19' E 139°43'5 9.5
2018-Jun-15 02:31N 35°24' E 139°40'0 0.8
2018-Jun-15 02:01N 35°24' E 139°40'0 0.3
2018-Jun-15 01:30N 35°24' E 139°40'3 5.4
2018-Jun-15 01:01N 35°24' E 139°43'611.7
2018-Jun-15 00:30N 35°28' E 139°49'6 7.3
2018-Jun-14 23:44N 35°31' E 139°55'2 8.9
2018-Jun-14 23:28N 35°29' E 139°53'611.8
2018-Jun-14 22:56N 35°25' E 139°47'512.0
2018-Jun-14 22:30N 35°20' E 139°44'5 9.8
2018-Jun-14 22:00N 35°16' E 139°47'5 5.8
2018-Jun-14 21:12N 35°11' E 139°46'2 9.6
2018-Jun-14 21:00N 35°13' E 139°45'  

Dump ship's entire track history